createdAt,value
2023-03-21T00:01:55.215Z,20.03
2023-03-21T00:04:24.764Z,20.27
2023-03-21T00:06:52.672Z,18.77
2023-03-21T00:09:20.872Z,15.63
2023-03-21T00:11:48.596Z,15.77
2023-03-21T00:14:18.702Z,13.30
2023-03-21T00:16:50.632Z,14.30
2023-03-21T00:19:20.906Z,14.00
2023-03-21T00:24:39.512Z,13.50
2023-03-21T00:27:42.857Z,16.97
2023-03-21T00:29:55.666Z,17.40
2023-03-21T00:32:23.052Z,20.97
2023-03-21T00:35:38.402Z,26.10
2023-03-21T00:37:37.348Z,23.67
2023-03-21T00:40:23.151Z,22.13
2023-03-21T00:42:52.772Z,22.60
2023-03-21T00:45:22.281Z,24.23
2023-03-21T00:47:49.794Z,26.73
2023-03-21T00:50:18.146Z,26.13
2023-03-21T00:52:45.378Z,29.23
2023-03-21T00:55:19.353Z,28.00
2023-03-21T00:57:50.192Z,30.23
2023-03-21T01:00:20.636Z,33.90
2023-03-21T01:03:17.499Z,32.50
2023-03-21T01:06:07.152Z,31.07
2023-03-21T01:08:51.752Z,33.43
2023-03-21T01:11:23.597Z,33.03
2023-03-21T01:13:56.196Z,36.50
2023-03-21T01:16:27.486Z,32.53
2023-03-21T01:18:54.747Z,32.20
2023-03-21T01:21:22.277Z,34.13
2023-03-21T01:23:49.443Z,32.13
2023-03-21T01:26:16.970Z,36.33
2023-03-21T01:28:45.718Z,41.27
2023-03-21T01:31:16.833Z,35.50
2023-03-21T01:33:45.003Z,39.90
2023-03-21T01:36:25.250Z,34.83
2023-03-21T01:38:57.057Z,40.70
2023-03-21T01:41:42.559Z,34.20
2023-03-21T01:44:19.797Z,34.70
2023-03-21T01:47:09.317Z,39.73
2023-03-21T01:49:50.131Z,29.57
2023-03-21T01:52:37.532Z,31.23
2023-03-21T01:55:13.280Z,36.07
2023-03-21T01:58:09.532Z,32.73
2023-03-21T02:00:56.756Z,33.00
2023-03-21T02:03:38.253Z,32.50
2023-03-21T02:06:53.031Z,32.00
2023-03-21T02:09:35.980Z,31.90
2023-03-21T02:12:06.430Z,32.33
2023-03-21T02:14:36.632Z,29.67
2023-03-21T02:17:47.461Z,34.37
2023-03-21T02:20:22.185Z,29.47
2023-03-21T02:23:10.257Z,26.60
2023-03-21T02:26:42.322Z,32.77
2023-03-21T02:29:45.924Z,32.47
2023-03-21T02:32:51.547Z,31.63
2023-03-21T02:36:14.263Z,25.37
2023-03-21T02:39:11.651Z,29.33
2023-03-21T02:42:25.636Z,35.30
2023-03-21T02:45:02.033Z,27.53
2023-03-21T02:47:41.687Z,31.77
2023-03-21T02:50:34.834Z,40.37
2023-03-21T02:53:04.705Z,29.13
2023-03-21T02:55:33.782Z,27.87
2023-03-21T02:58:12.719Z,31.23
2023-03-21T03:00:45.383Z,29.53
2023-03-21T03:03:27.983Z,35.17
2023-03-21T03:06:04.467Z,35.97
2023-03-21T03:09:01.557Z,29.70
2023-03-21T03:11:34.742Z,38.70
2023-03-21T03:14:44.196Z,35.70
2023-03-21T03:18:12.778Z,32.60
2023-03-21T03:21:19.014Z,33.80
2023-03-21T03:24:47.224Z,34.10
2023-03-21T03:27:29.812Z,33.60
2023-03-21T03:30:01.276Z,36.30
2023-03-21T03:32:38.534Z,35.20
2023-03-21T03:35:07.568Z,31.83
2023-03-21T03:37:37.888Z,31.40
2023-03-21T03:40:19.403Z,37.37
2023-03-21T03:43:05.558Z,33.77
2023-03-21T03:46:04.122Z,35.60
2023-03-21T03:48:46.392Z,38.33
2023-03-21T03:51:26.141Z,32.67
2023-03-21T03:54:30.816Z,27.20
2023-03-21T03:56:59.303Z,28.33
2023-03-21T03:59:26.610Z,29.53
2023-03-21T04:02:11.913Z,26.77
2023-03-21T04:04:39.584Z,30.93
2023-03-21T04:07:07.756Z,31.13
2023-03-21T04:09:44.077Z,25.63
2023-03-21T04:12:15.388Z,28.07
2023-03-21T04:14:53.285Z,26.80
2023-03-21T04:17:22.714Z,28.90
2023-03-21T04:19:53.792Z,29.00
2023-03-21T04:22:25.759Z,28.13
2023-03-21T04:24:53.611Z,30.47
2023-03-21T04:27:20.856Z,25.90
2023-03-21T04:30:06.115Z,29.10
2023-03-21T04:32:56.690Z,28.67
2023-03-21T04:35:25.753Z,25.50
2023-03-21T04:37:54.355Z,31.33
2023-03-21T04:40:21.655Z,30.37
2023-03-21T04:42:49.298Z,28.13
2023-03-21T04:45:17.302Z,29.07
2023-03-21T04:47:46.841Z,25.33
2023-03-21T04:50:15.921Z,21.17
2023-03-21T04:52:43.496Z,24.33
2023-03-21T04:55:11.299Z,17.90
2023-03-21T04:57:39.602Z,20.13
2023-03-21T05:00:11.251Z,17.93
2023-03-21T05:02:39.197Z,16.83
2023-03-21T05:05:11.334Z,11.23
2023-03-21T05:07:40.568Z,15.30
2023-03-21T05:10:11.835Z,13.17
2023-03-21T05:12:41.417Z,8.43
2023-03-21T05:15:09.680Z,13.73
2023-03-21T05:17:38.208Z,8.63
2023-03-21T05:20:09.232Z,13.07
2023-03-21T05:22:40.660Z,8.33
2023-03-21T05:25:13.151Z,13.97
2023-03-21T05:28:02.995Z,15.13
2023-03-21T05:30:31.911Z,9.60
2023-03-21T05:33:01.200Z,12.57
2023-03-21T05:35:29.541Z,12.10
2023-03-21T05:37:59.689Z,10.30
2023-03-21T05:40:30.777Z,12.40
2023-03-21T05:42:59.245Z,9.70
2023-03-21T05:45:27.309Z,12.90
2023-03-21T05:47:56.071Z,12.27
2023-03-21T05:50:29.545Z,13.23
2023-03-21T05:53:12.419Z,11.80
2023-03-21T05:55:40.074Z,13.80
2023-03-21T05:58:12.764Z,21.10
2023-03-21T06:00:45.374Z,11.60
2023-03-21T06:03:26.020Z,10.83
2023-03-21T06:06:19.381Z,15.07
2023-03-21T06:08:53.430Z,10.80
2023-03-21T06:11:33.499Z,10.77
2023-03-21T06:14:16.754Z,10.40
2023-03-21T06:16:45.450Z,9.40
2023-03-21T06:19:13.318Z,8.90
2023-03-21T06:22:00.819Z,12.23
2023-03-21T06:24:28.331Z,11.50
2023-03-21T06:26:56.193Z,13.30
2023-03-21T06:29:25.970Z,10.20
2023-03-21T06:31:53.129Z,10.47
2023-03-21T06:34:21.544Z,13.83
2023-03-21T06:36:48.704Z,13.50
2023-03-21T06:39:18.243Z,10.13
2023-03-21T06:41:46.413Z,11.60
2023-03-21T06:44:21.789Z,12.27
2023-03-21T06:46:57.250Z,9.13
2023-03-21T06:49:24.857Z,14.30
2023-03-21T06:51:52.035Z,9.33
2023-03-21T06:54:21.535Z,18.43
2023-03-21T06:56:58.878Z,16.83
2023-03-21T06:59:29.922Z,15.70
2023-03-21T07:02:03.109Z,13.10
2023-03-21T07:04:32.021Z,10.70
2023-03-21T07:06:59.071Z,10.63
2023-03-21T07:09:28.259Z,13.03
2023-03-21T07:11:59.559Z,12.07
2023-03-21T07:14:36.731Z,9.60
2023-03-21T07:17:04.537Z,8.50
2023-03-21T07:19:32.019Z,10.67
2023-03-21T07:22:01.419Z,20.37
2023-03-21T07:24:29.195Z,15.00
2023-03-21T07:26:56.726Z,10.93
2023-03-21T07:29:25.005Z,12.40
2023-03-21T07:31:52.170Z,12.20
2023-03-21T07:34:22.546Z,16.50
2023-03-21T07:36:50.955Z,17.90
2023-03-21T07:39:19.619Z,10.27
2023-03-21T07:41:46.716Z,16.37
2023-03-21T07:44:25.416Z,12.37
2023-03-21T07:47:02.330Z,16.17
2023-03-21T07:49:29.590Z,9.33
2023-03-21T07:51:56.760Z,13.53
2023-03-21T07:54:23.865Z,17.10
2023-03-21T07:56:50.962Z,12.27
2023-03-21T07:59:18.042Z,8.47
2023-03-21T08:01:45.105Z,13.03
2023-03-21T08:04:12.461Z,9.63
2023-03-21T08:06:40.391Z,13.03
2023-03-21T08:09:07.742Z,8.77
2023-03-21T08:11:34.886Z,9.83
2023-03-21T08:14:02.290Z,15.33
2023-03-21T08:16:29.573Z,14.23
2023-03-21T08:18:56.664Z,13.50
2023-03-21T08:21:24.057Z,14.97
2023-03-21T08:23:51.464Z,9.30
2023-03-21T08:26:19.425Z,12.43
2023-03-21T08:28:47.124Z,10.73
2023-03-21T08:31:15.052Z,10.37
2023-03-21T08:33:42.180Z,6.17
2023-03-21T08:36:10.420Z,11.37
2023-03-21T08:38:38.012Z,9.27
2023-03-21T08:41:05.458Z,8.63
2023-03-21T08:43:32.698Z,11.40
2023-03-21T08:45:59.824Z,12.20
2023-03-21T08:48:26.889Z,9.03
2023-03-21T08:50:53.999Z,12.73
2023-03-21T08:53:21.094Z,8.07
2023-03-21T08:55:49.808Z,8.10
2023-03-21T08:58:17.851Z,15.47
2023-03-21T09:00:44.925Z,8.33
2023-03-21T09:03:12.272Z,13.03
2023-03-21T09:05:39.848Z,10.87
2023-03-21T09:08:07.172Z,7.77
2023-03-21T09:10:34.361Z,6.00
2023-03-21T09:13:01.486Z,5.53
2023-03-21T09:15:29.903Z,7.07
2023-03-21T09:17:58.463Z,4.57
2023-03-21T09:20:31.183Z,7.30
2023-03-21T09:22:59.782Z,11.63
2023-03-21T09:25:31.814Z,6.63
2023-03-21T09:28:05.277Z,4.90
2023-03-21T09:30:37.227Z,4.83
2023-03-21T09:33:19.292Z,5.50
2023-03-21T09:35:46.503Z,7.50
2023-03-21T09:38:13.780Z,7.43
2023-03-21T09:41:12.012Z,6.73
2023-03-21T09:44:11.982Z,3.77
2023-03-21T09:46:52.351Z,7.93
2023-03-21T09:49:25.742Z,5.20
2023-03-21T09:51:55.726Z,4.03
2023-03-21T09:54:33.427Z,4.70
2023-03-21T09:57:15.020Z,4.70
2023-03-21T09:59:42.934Z,6.80
2023-03-21T10:02:38.346Z,3.30
2023-03-21T10:05:32.879Z,4.00
2023-03-21T10:08:15.672Z,5.63
2023-03-21T10:10:54.689Z,3.87
2023-03-21T10:13:36.213Z,6.07
2023-03-21T10:16:16.007Z,4.43
2023-03-21T10:18:45.127Z,6.93
2023-03-21T10:21:47.331Z,4.87
2023-03-21T10:24:20.676Z,3.83
2023-03-21T10:26:50.688Z,6.40
2023-03-21T10:29:23.026Z,3.37
2023-03-21T10:31:52.044Z,4.57
2023-03-21T10:37:25.231Z,3.20
2023-03-21T10:39:55.006Z,2.47
2023-03-21T10:42:26.578Z,2.83
2023-03-21T10:44:57.572Z,2.90
2023-03-21T10:47:34.733Z,3.60
2023-03-21T10:50:16.474Z,2.47
2023-03-21T10:52:50.802Z,4.07
2023-03-21T10:55:29.456Z,2.37
2023-03-21T10:58:18.933Z,4.47
2023-03-21T11:00:47.716Z,3.03
2023-03-21T11:03:32.340Z,2.77
2023-03-21T11:06:08.537Z,2.40
2023-03-21T11:08:51.747Z,2.53
2023-03-21T11:11:29.317Z,3.67
2023-03-21T11:14:07.129Z,1.97
2023-03-21T11:16:42.789Z,1.80
2023-03-21T11:19:17.702Z,2.30
2023-03-21T11:21:45.381Z,4.27
2023-03-21T11:24:18.771Z,2.97
2023-03-21T11:26:51.361Z,2.20
2023-03-21T11:29:48.181Z,2.80
2023-03-21T11:32:37.989Z,4.30
2023-03-21T11:35:20.797Z,2.47
2023-03-21T11:37:57.080Z,3.23
2023-03-21T11:40:36.432Z,5.53
2023-03-21T11:43:32.589Z,1.60
2023-03-21T11:46:04.901Z,4.73
2023-03-21T11:48:44.800Z,1.77
2023-03-21T11:51:38.999Z,3.60
2023-03-21T11:54:22.375Z,3.30
2023-03-21T11:56:54.090Z,2.87
2023-03-21T11:59:32.871Z,4.10
2023-03-21T12:02:56.415Z,3.33
2023-03-21T12:05:41.472Z,2.07
2023-03-21T12:08:17.454Z,5.20
2023-03-21T12:11:26.079Z,4.30
2023-03-21T12:14:11.565Z,5.43
2023-03-21T12:17:02.866Z,2.20
2023-03-21T12:20:12.063Z,3.93
2023-03-21T12:23:07.249Z,4.90
2023-03-21T12:26:05.877Z,2.90
2023-03-21T12:29:00.423Z,3.23
2023-03-21T12:32:00.886Z,4.33
2023-03-21T12:34:56.599Z,5.43
2023-03-21T12:37:45.271Z,2.53
2023-03-21T12:40:39.300Z,4.03
2023-03-21T12:43:28.455Z,3.10
2023-03-21T12:46:05.871Z,3.73
2023-03-21T12:48:48.449Z,4.30
2023-03-21T12:51:20.277Z,3.10
2023-03-21T12:54:08.140Z,3.80
2023-03-21T12:56:49.579Z,4.00
2023-03-21T12:59:36.104Z,7.13
2023-03-21T13:02:22.810Z,2.80
2023-03-21T13:05:06.050Z,3.83
2023-03-21T13:07:42.049Z,5.60
2023-03-21T13:10:23.570Z,2.73
2023-03-21T13:13:13.456Z,2.60
2023-03-21T13:16:01.280Z,3.40
2023-03-21T13:18:43.258Z,3.00
2023-03-21T13:21:40.278Z,2.70
2023-03-21T13:24:32.583Z,3.43
2023-03-21T13:27:07.988Z,4.37
2023-03-21T13:29:46.883Z,3.50
2023-03-21T13:32:38.617Z,3.67
2023-03-21T13:35:32.740Z,4.23
2023-03-21T13:38:17.297Z,5.87
2023-03-21T13:40:57.238Z,4.33
2023-03-21T13:43:51.738Z,3.80
2023-03-21T13:46:40.624Z,4.70
2023-03-21T13:49:38.442Z,2.93
2023-03-21T13:52:12.195Z,2.30
2023-03-21T13:54:39.244Z,3.90
2023-03-21T13:57:07.707Z,3.23
2023-03-21T13:59:45.271Z,4.60
2023-03-21T14:02:12.844Z,3.20
2023-03-21T14:04:53.906Z,3.87
2023-03-21T14:07:34.378Z,2.33
2023-03-21T14:10:14.091Z,6.00
2023-03-21T14:12:43.954Z,2.93
2023-03-21T14:15:27.708Z,2.97
2023-03-21T14:18:00.083Z,1.87
2023-03-21T14:20:38.663Z,3.50
2023-03-21T14:23:07.992Z,3.73
2023-03-21T14:25:46.709Z,3.37
2023-03-21T14:28:25.248Z,3.03
2023-03-21T14:30:59.968Z,2.93
2023-03-21T14:33:44.312Z,2.20
2023-03-21T14:36:18.138Z,1.30
2023-03-21T14:38:58.554Z,1.40
2023-03-21T14:41:29.493Z,1.60
2023-03-21T14:44:17.645Z,2.60
2023-03-21T14:46:49.614Z,1.70
2023-03-21T14:49:27.849Z,3.20
2023-03-21T14:51:59.439Z,1.50
2023-03-21T14:54:32.815Z,3.47
2023-03-21T14:57:03.592Z,2.33
2023-03-21T14:59:36.531Z,2.37
2023-03-21T15:02:14.832Z,2.37
2023-03-21T15:04:52.225Z,2.23
2023-03-21T15:07:34.787Z,2.50
2023-03-21T15:10:17.876Z,3.63
2023-03-21T15:12:58.731Z,2.20
2023-03-21T15:15:29.987Z,4.27
2023-03-21T15:18:08.979Z,3.47
2023-03-21T15:20:38.723Z,4.00
2023-03-21T15:23:16.275Z,2.77
2023-03-21T15:25:43.719Z,4.20
2023-03-21T15:28:14.672Z,2.83
2023-03-21T15:30:52.383Z,3.00
2023-03-21T15:33:20.639Z,6.17
2023-03-21T15:35:55.676Z,4.00
2023-03-21T15:38:36.390Z,3.37
2023-03-21T15:41:26.260Z,5.30
2023-03-21T15:44:02.654Z,2.70
2023-03-21T15:46:50.893Z,3.90
2023-03-21T15:49:40.264Z,6.50
2023-03-21T15:52:14.335Z,4.03
2023-03-21T15:54:55.756Z,2.90
2023-03-21T15:57:29.948Z,1.90
2023-03-21T16:00:12.000Z,3.20
2023-03-21T16:02:42.305Z,7.20
2023-03-21T16:05:28.956Z,3.20
2023-03-21T16:08:23.647Z,3.80
2023-03-21T16:10:50.935Z,5.13
2023-03-21T16:13:18.159Z,16.03
2023-03-21T16:15:46.975Z,3.70
2023-03-21T16:18:18.091Z,4.67
2023-03-21T16:20:47.157Z,5.20
2023-03-21T16:23:15.898Z,7.33
2023-03-21T16:25:44.440Z,2.30
2023-03-21T16:28:16.592Z,7.20
2023-03-21T16:30:44.578Z,2.87
2023-03-21T16:33:12.981Z,5.80
2023-03-21T16:35:40.480Z,3.20
2023-03-21T16:38:08.005Z,3.17
2023-03-21T16:40:40.128Z,4.13
2023-03-21T16:43:08.013Z,3.90
2023-03-21T16:45:35.930Z,2.53
2023-03-21T16:48:04.156Z,4.13
2023-03-21T16:50:36.219Z,7.37
2023-03-21T16:53:03.910Z,4.40
2023-03-21T16:55:33.629Z,2.93
2023-03-21T16:58:01.677Z,4.07
2023-03-21T17:00:31.354Z,8.70
2023-03-21T17:03:02.593Z,3.17
2023-03-21T17:05:33.016Z,4.70
2023-03-21T17:08:04.637Z,4.93
2023-03-21T17:10:35.557Z,3.73
2023-03-21T17:13:02.616Z,2.63
2023-03-21T17:15:29.799Z,3.60
2023-03-21T17:17:56.875Z,19.80
2023-03-21T17:20:31.636Z,4.17
2023-03-21T17:22:59.379Z,4.17
2023-03-21T17:25:27.162Z,6.60
2023-03-21T17:27:54.515Z,2.93
2023-03-21T17:30:26.242Z,3.10
2023-03-21T17:32:54.727Z,6.70
2023-03-21T17:35:23.485Z,4.87
2023-03-21T17:37:51.776Z,5.67
2023-03-21T17:40:34.550Z,5.70
2023-03-21T17:43:01.635Z,4.20
2023-03-21T17:45:29.721Z,4.57
2023-03-21T17:47:56.817Z,7.17
2023-03-21T17:50:27.545Z,4.57
2023-03-21T17:52:57.401Z,4.90
2023-03-21T17:55:24.897Z,8.47
2023-03-21T17:57:52.140Z,5.00
2023-03-21T18:00:27.449Z,8.13
2023-03-21T18:02:54.771Z,10.70
2023-03-21T18:05:22.947Z,11.33
2023-03-21T18:08:09.639Z,6.37
2023-03-21T18:10:38.080Z,14.17
2023-03-21T18:13:05.470Z,10.10
2023-03-21T18:15:32.914Z,7.20
2023-03-21T18:17:59.988Z,6.77
2023-03-21T18:20:49.962Z,6.00
2023-03-21T18:23:15.988Z,9.00
2023-03-21T18:25:43.417Z,18.13
2023-03-21T18:28:12.496Z,10.53
2023-03-21T18:31:07.103Z,9.27
2023-03-21T18:33:28.654Z,6.10
2023-03-21T18:35:59.990Z,7.80
2023-03-21T18:38:28.534Z,13.53
2023-03-21T18:40:56.765Z,13.43
2023-03-21T18:44:01.014Z,12.13
2023-03-21T18:46:12.685Z,9.20
2023-03-21T18:48:39.839Z,17.23
2023-03-21T18:51:07.191Z,23.53
2023-03-21T18:53:34.380Z,11.67
2023-03-21T18:56:02.081Z,9.13
2023-03-21T18:58:29.467Z,13.80
2023-03-21T19:00:59.929Z,13.27
2023-03-21T19:03:36.726Z,11.87
2023-03-21T19:06:06.470Z,8.73
2023-03-21T19:08:36.954Z,7.60
2023-03-21T19:11:06.591Z,7.47
2023-03-21T19:13:34.484Z,8.83
2023-03-21T19:16:03.126Z,8.90
2023-03-21T19:18:53.119Z,8.27
2023-03-21T19:21:21.907Z,9.27
2023-03-21T19:24:22.900Z,8.30
2023-03-21T19:26:36.762Z,9.50
2023-03-21T19:29:03.965Z,10.30
2023-03-21T19:31:31.503Z,9.03
2023-03-21T19:33:59.019Z,13.33
2023-03-21T19:36:26.709Z,12.10
2023-03-21T19:38:53.991Z,8.20
2023-03-21T19:41:21.245Z,7.60
2023-03-21T19:43:54.564Z,8.20
2023-03-21T19:46:25.561Z,6.33
2023-03-21T19:48:56.587Z,7.00
2023-03-21T19:51:29.411Z,12.80
2023-03-21T19:54:04.594Z,10.27
2023-03-21T19:56:32.002Z,6.97
2023-03-21T19:59:02.554Z,11.70
2023-03-21T20:01:32.464Z,8.80
2023-03-21T20:04:00.628Z,8.50
2023-03-21T20:06:27.828Z,10.43
2023-03-21T20:09:42.928Z,8.83
2023-03-21T20:11:43.276Z,5.80
2023-03-21T20:14:10.578Z,6.60
2023-03-21T20:16:37.814Z,5.77
2023-03-21T20:19:08.868Z,9.70
2023-03-21T20:21:48.105Z,7.97
2023-03-21T20:24:17.753Z,10.57
2023-03-21T20:26:46.578Z,9.30
2023-03-21T20:30:07.609Z,7.40
2023-03-21T20:32:00.876Z,8.83
2023-03-21T20:34:28.571Z,7.10
2023-03-21T20:36:58.155Z,10.60
2023-03-21T20:39:28.035Z,6.67
2023-03-21T20:41:58.985Z,9.73
2023-03-21T20:44:57.347Z,8.83
2023-03-21T20:47:14.553Z,5.90
2023-03-21T20:49:41.801Z,6.30
2023-03-21T20:55:00.194Z,6.13
2023-03-21T20:57:27.783Z,6.83
2023-03-21T20:59:55.375Z,6.93
2023-03-21T21:02:23.680Z,7.27
2023-03-21T21:05:21.570Z,8.40
2023-03-21T21:07:41.608Z,10.60
2023-03-21T21:10:15.374Z,10.13
2023-03-21T21:12:45.282Z,5.50
2023-03-21T21:15:16.697Z,7.07
2023-03-21T21:20:33.798Z,5.30
2023-03-21T21:23:01.166Z,7.60
2023-03-21T21:25:32.124Z,4.67
2023-03-21T21:28:01.610Z,7.60
2023-03-21T21:30:29.554Z,6.83
2023-03-21T21:32:59.554Z,5.90
2023-03-21T21:35:27.105Z,3.57
2023-03-21T21:37:54.187Z,4.47
2023-03-21T21:40:23.450Z,9.63
2023-03-21T21:42:50.853Z,4.60
2023-03-21T21:45:18.994Z,5.57
2023-03-21T21:47:46.590Z,5.23
2023-03-21T21:50:14.331Z,5.40
2023-03-21T21:52:43.735Z,5.43
2023-03-21T21:55:13.169Z,9.47
2023-03-21T21:57:40.954Z,9.07
2023-03-21T22:00:13.725Z,8.30
2023-03-21T22:02:41.944Z,8.23
2023-03-21T22:05:09.627Z,6.17
2023-03-21T22:07:38.053Z,6.20
2023-03-21T22:10:06.669Z,7.00
2023-03-21T22:12:33.989Z,5.90
2023-03-21T22:15:01.145Z,8.33
2023-03-21T22:17:28.196Z,7.43
2023-03-21T22:20:05.178Z,8.53
2023-03-21T22:22:34.678Z,7.83
2023-03-21T22:25:03.069Z,6.67
2023-03-21T22:27:30.565Z,6.03
2023-03-21T22:29:57.563Z,7.20
2023-03-21T22:32:24.645Z,13.63
2023-03-21T22:34:51.640Z,11.43
2023-03-21T22:37:18.778Z,5.83
2023-03-21T22:39:45.864Z,7.90
2023-03-21T22:42:12.946Z,5.60
2023-03-21T22:44:40.279Z,6.60
2023-03-21T22:47:10.993Z,5.43
2023-03-21T22:49:39.201Z,7.70
2023-03-21T22:52:06.893Z,6.73
2023-03-21T22:54:34.075Z,6.07
2023-03-21T22:57:01.283Z,6.90
2023-03-21T22:59:28.775Z,6.23
2023-03-21T23:01:56.746Z,5.40
2023-03-21T23:04:26.657Z,5.80
2023-03-21T23:06:54.600Z,8.80
2023-03-21T23:09:21.666Z,10.10
2023-03-21T23:11:49.753Z,8.00
2023-03-21T23:14:21.619Z,5.00
2023-03-21T23:16:52.147Z,8.13
2023-03-21T23:19:21.519Z,12.83
2023-03-21T23:21:49.101Z,9.23
2023-03-21T23:24:16.191Z,8.73
2023-03-21T23:26:43.221Z,5.17
2023-03-21T23:29:11.058Z,12.50
2023-03-21T23:31:38.540Z,10.03
2023-03-21T23:34:06.192Z,4.53
2023-03-21T23:36:33.377Z,12.30
2023-03-21T23:39:00.684Z,6.80
2023-03-21T23:41:27.721Z,5.40
2023-03-21T23:43:54.864Z,7.33
2023-03-21T23:46:22.152Z,10.13
2023-03-21T23:48:49.374Z,7.63
2023-03-21T23:51:18.000Z,7.97
2023-03-21T23:53:46.364Z,7.63
2023-03-21T23:56:21.059Z,5.30
2023-03-21T23:58:52.602Z,11.60
